Time;durP1;ratioP1;P1;durP2;ratioP2;P2;SDS_P1;SDS_P2;PMS_P1;PMS_P2;Temp;Humidity;BMP_temperature;BMP_pressure;BME280_temperature;BME280_humidity;BME280_pressure;Samples;Min_cycle;Max_cycle;Signal;HPM_P1;HPM_P2
2022/04/07 00:00:52;;;;;;;5.00;3.70;;;;;;;;;;4999251;28;20189;-56
2022/04/07 00:03:18;;;;;;;5.17;3.77;;;;;;;;;;4994728;28;20204;-56
2022/04/07 00:05:44;;;;;;;3.90;3.50;;;;;;;;;;4999041;28;20205;-56
2022/04/07 00:08:10;;;;;;;4.33;3.70;;;;;;;;;;4998010;28;20217;-57
2022/04/07 00:10:36;;;;;;;4.57;3.90;;;;;;;;;;4998234;28;20690;-56
2022/04/07 00:13:02;;;;;;;5.00;3.43;;;;;;;;;;4989845;28;20247;-57
2022/04/07 00:15:28;;;;;;;5.43;3.40;;;;;;;;;;4998120;28;20189;-57
2022/04/07 00:17:54;;;;;;;4.37;3.20;;;;;;;;;;4997561;28;20298;-56
2022/04/07 00:20:21;;;;;;;4.13;3.43;;;;;;;;;;5001053;28;20192;-56
2022/04/07 00:22:47;;;;;;;3.73;3.20;;;;;;;;;;4995144;28;20186;-56
2022/04/07 00:25:13;;;;;;;5.40;3.20;;;;;;;;;;4994976;28;20197;-56
2022/04/07 00:27:39;;;;;;;3.50;3.00;;;;;;;;;;4999354;28;20233;-56
2022/04/07 00:30:06;;;;;;;3.37;2.90;;;;;;;;;;4994832;28;20225;-56
2022/04/07 00:32:32;;;;;;;3.37;2.60;;;;;;;;;;4992085;28;20225;-56
2022/04/07 00:34:58;;;;;;;4.00;3.10;;;;;;;;;;4995946;28;20200;-56
2022/04/07 00:37:24;;;;;;;3.80;2.90;;;;;;;;;;5000622;28;20553;-56
2022/04/07 00:39:50;;;;;;;2.70;2.50;;;;;;;;;;4996428;28;20565;-57
2022/04/07 00:42:16;;;;;;;3.37;2.50;;;;;;;;;;5008678;28;20710;-56
2022/04/07 00:44:43;;;;;;;2.50;2.30;;;;;;;;;;4992810;28;20297;-56
2022/04/07 00:47:09;;;;;;;3.63;2.47;;;;;;;;;;4990314;28;20181;-56
2022/04/07 00:49:35;;;;;;;5.37;2.47;;;;;;;;;;4993306;28;20192;-56
2022/04/07 00:52:01;;;;;;;3.20;2.37;;;;;;;;;;4992904;28;20718;-56
2022/04/07 00:54:27;;;;;;;4.70;2.10;;;;;;;;;;4999438;28;20689;-56
2022/04/07 00:56:54;;;;;;;3.67;2.20;;;;;;;;;;4997880;28;20194;-56
2022/04/07 00:59:20;;;;;;;5.07;2.27;;;;;;;;;;4996167;28;20186;-55
2022/04/07 01:01:46;;;;;;;2.27;1.97;;;;;;;;;;4994823;28;20716;-56
2022/04/07 01:04:12;;;;;;;4.47;2.10;;;;;;;;;;4998717;28;20192;-56
2022/04/07 01:06:39;;;;;;;2.83;1.93;;;;;;;;;;4998560;28;20213;-56
2022/04/07 01:09:05;;;;;;;4.17;1.80;;;;;;;;;;4997001;28;20201;-56
2022/04/07 01:11:31;;;;;;;4.67;2.00;;;;;;;;;;4998055;28;20221;-56
2022/04/07 01:13:57;;;;;;;3.30;1.97;;;;;;;;;;4996233;28;20190;-56
2022/04/07 01:16:26;;;;;;;6.20;1.80;;;;;;;;;;4999856;28;20190;-55
2022/04/07 01:18:52;;;;;;;4.70;2.00;;;;;;;;;;4999050;28;20189;-56
2022/04/07 01:21:18;;;;;;;3.80;1.80;;;;;;;;;;4991475;28;20220;-56
2022/04/07 01:24:04;;;;;;;1.97;1.50;;;;;;;;;;4991692;28;20663;-56
2022/04/07 01:26:34;;;;;;;1.80;1.57;;;;;;;;;;4990796;28;20271;-56
2022/04/07 01:29:00;;;;;;;4.17;1.90;;;;;;;;;;5004736;28;20763;-56
2022/04/07 01:31:27;;;;;;;3.27;1.87;;;;;;;;;;4999182;28;20248;-56
2022/04/07 01:33:54;;;;;;;2.97;1.80;;;;;;;;;;4991393;28;20209;-56
2022/04/07 01:36:20;;;;;;;3.37;1.80;;;;;;;;;;4998351;28;20316;-56
2022/04/07 01:38:46;;;;;;;2.00;1.80;;;;;;;;;;4998149;28;20192;-56
2022/04/07 01:41:12;;;;;;;1.63;1.53;;;;;;;;;;4994621;28;20316;-56
2022/04/07 01:43:38;;;;;;;2.83;1.77;;;;;;;;;;5001817;28;20246;-57
2022/04/07 01:46:04;;;;;;;2.57;1.90;;;;;;;;;;5001245;28;21104;-55
2022/04/07 01:48:30;;;;;;;2.73;1.90;;;;;;;;;;5000278;28;20193;-56
2022/04/07 01:50:57;;;;;;;4.00;1.90;;;;;;;;;;4993742;28;20914;-56
2022/04/07 01:53:24;;;;;;;5.30;2.00;;;;;;;;;;5005333;28;20193;-56
2022/04/07 01:55:49;;;;;;;1.77;1.53;;;;;;;;;;5003884;28;20613;-56
2022/04/07 01:58:16;;;;;;;3.33;1.97;;;;;;;;;;5007121;28;20614;-56
2022/04/07 02:00:42;;;;;;;1.83;1.67;;;;;;;;;;4995354;28;20581;-56
2022/04/07 02:03:11;;;;;;;3.07;2.00;;;;;;;;;;4997215;28;20213;-56
2022/04/07 02:05:37;;;;;;;4.37;1.70;;;;;;;;;;5003616;28;20553;-56
2022/04/07 02:08:03;;;;;;;5.13;1.77;;;;;;;;;;5005998;28;20295;-55
2022/04/07 02:10:30;;;;;;;2.90;1.70;;;;;;;;;;4994555;28;20209;-56
2022/04/07 02:12:56;;;;;;;2.30;1.80;;;;;;;;;;4995991;28;20634;-56
2022/04/07 02:15:24;;;;;;;1.87;1.50;;;;;;;;;;5001230;28;20193;-57
2022/04/07 02:17:50;;;;;;;2.80;1.90;;;;;;;;;;4999816;28;20452;-56
2022/04/07 02:20:16;;;;;;;4.40;1.80;;;;;;;;;;5001256;28;20194;-56
2022/04/07 02:22:42;;;;;;;2.40;1.50;;;;;;;;;;5007768;28;20189;-56
2022/04/07 02:25:08;;;;;;;2.60;1.60;;;;;;;;;;5005342;28;20221;-56
2022/04/07 02:27:36;;;;;;;1.87;1.67;;;;;;;;;;4999070;28;20239;-56
2022/04/07 02:30:02;;;;;;;1.53;1.40;;;;;;;;;;4994090;28;21610;-56
2022/04/07 02:32:28;;;;;;;2.50;1.70;;;;;;;;;;4989954;28;20224;-56
2022/04/07 02:34:54;;;;;;;4.80;1.60;;;;;;;;;;4998289;28;20268;-56
2022/04/07 02:37:20;;;;;;;1.50;1.40;;;;;;;;;;4996357;28;20289;-56
2022/04/07 02:39:46;;;;;;;1.73;1.43;;;;;;;;;;4995123;28;20197;-56
2022/04/07 02:42:12;;;;;;;2.43;1.50;;;;;;;;;;4995268;28;20197;-57
2022/04/07 02:44:38;;;;;;;2.70;1.50;;;;;;;;;;4992817;28;20205;-56
2022/04/07 02:47:04;;;;;;;4.57;1.60;;;;;;;;;;4992633;28;20197;-56
2022/04/07 02:49:30;;;;;;;2.83;1.37;;;;;;;;;;4993572;28;20197;-56
2022/04/07 02:51:56;;;;;;;2.43;1.40;;;;;;;;;;4996257;28;20209;-56
2022/04/07 02:54:22;;;;;;;2.00;1.50;;;;;;;;;;4996730;28;20190;-56
2022/04/07 02:56:48;;;;;;;2.43;1.50;;;;;;;;;;4995266;28;20222;-56
2022/04/07 02:59:14;;;;;;;1.70;1.47;;;;;;;;;;4996454;28;20186;-56
2022/04/07 03:01:39;;;;;;;3.07;1.87;;;;;;;;;;4991167;28;20497;-56
2022/04/07 03:04:05;;;;;;;2.50;1.73;;;;;;;;;;4997824;28;20730;-55
2022/04/07 03:06:31;;;;;;;3.57;1.70;;;;;;;;;;5006393;28;20739;-55
2022/04/07 03:08:57;;;;;;;3.40;1.80;;;;;;;;;;4999698;28;20272;-56
2022/04/07 03:11:23;;;;;;;3.33;1.80;;;;;;;;;;4996234;28;20204;-56
2022/04/07 03:13:49;;;;;;;3.37;1.60;;;;;;;;;;4996875;28;20665;-56
2022/04/07 03:16:15;;;;;;;3.27;1.80;;;;;;;;;;4997278;28;20666;-56
2022/04/07 03:18:41;;;;;;;2.77;1.60;;;;;;;;;;4998426;28;20182;-55
2022/04/07 03:21:07;;;;;;;4.50;1.90;;;;;;;;;;4997206;28;20193;-56
2022/04/07 03:23:33;;;;;;;4.80;1.70;;;;;;;;;;5000071;28;20197;-56
2022/04/07 03:26:00;;;;;;;3.53;1.70;;;;;;;;;;5002102;28;20192;-56
2022/04/07 03:28:26;;;;;;;5.43;2.07;;;;;;;;;;5007922;28;20726;-55
2022/04/07 03:30:52;;;;;;;4.20;1.60;;;;;;;;;;5007257;28;20213;-56
2022/04/07 03:33:19;;;;;;;3.27;1.73;;;;;;;;;;5008645;28;25305;-56
2022/04/07 03:35:45;;;;;;;3.63;1.90;;;;;;;;;;5002122;28;20843;-56
2022/04/07 03:38:11;;;;;;;4.07;1.83;;;;;;;;;;5001223;28;20344;-57
2022/04/07 03:40:36;;;;;;;3.53;1.80;;;;;;;;;;5000182;28;20188;-55
2022/04/07 03:43:03;;;;;;;2.00;1.70;;;;;;;;;;5003504;28;20292;-56
2022/04/07 03:45:29;;;;;;;3.17;1.80;;;;;;;;;;5002220;28;20622;-56
2022/04/07 03:47:55;;;;;;;4.13;2.00;;;;;;;;;;4998374;28;20256;-56
2022/04/07 03:50:21;;;;;;;6.20;2.30;;;;;;;;;;5005113;28;20271;-56
2022/04/07 03:52:47;;;;;;;2.73;1.90;;;;;;;;;;5006950;28;20189;-56
2022/04/07 03:55:13;;;;;;;4.80;2.20;;;;;;;;;;4998246;28;20200;-56
2022/04/07 03:57:39;;;;;;;4.30;2.10;;;;;;;;;;4997992;28;20193;-56
2022/04/07 04:00:05;;;;;;;4.70;2.20;;;;;;;;;;4996701;28;20799;-56
2022/04/07 04:02:31;;;;;;;3.43;2.03;;;;;;;;;;4999883;28;20576;-56
2022/04/07 04:04:57;;;;;;;3.77;2.10;;;;;;;;;;4996711;28;20969;-56
2022/04/07 04:07:23;;;;;;;5.90;2.17;;;;;;;;;;5002527;28;20219;-56
2022/04/07 04:09:49;;;;;;;3.27;1.80;;;;;;;;;;4994822;28;20203;-56
2022/04/07 04:12:15;;;;;;;3.17;1.73;;;;;;;;;;4995947;28;20428;-57
2022/04/07 04:14:41;;;;;;;2.37;1.83;;;;;;;;;;4997176;28;20213;-55
2022/04/07 04:17:07;;;;;;;4.20;2.10;;;;;;;;;;4996479;28;20190;-56
2022/04/07 04:19:33;;;;;;;5.03;1.87;;;;;;;;;;4994726;28;20189;-56
2022/04/07 04:21:59;;;;;;;2.97;1.80;;;;;;;;;;5002266;28;20709;-56
2022/04/07 04:24:25;;;;;;;2.13;1.67;;;;;;;;;;4995096;28;20196;-56
2022/04/07 04:26:51;;;;;;;2.93;1.60;;;;;;;;;;4994261;28;20233;-56
2022/04/07 04:29:17;;;;;;;1.90;1.70;;;;;;;;;;4990351;28;20663;-55
2022/04/07 04:31:43;;;;;;;3.80;1.70;;;;;;;;;;4998593;28;20209;-56
2022/04/07 04:34:09;;;;;;;3.93;2.30;;;;;;;;;;4997508;28;21007;-57
2022/04/07 04:36:35;;;;;;;2.90;1.67;;;;;;;;;;4998884;28;20247;-56
2022/04/07 04:39:01;;;;;;;2.27;1.70;;;;;;;;;;5010454;28;21237;-56
2022/04/07 04:41:27;;;;;;;3.60;2.10;;;;;;;;;;5000029;28;20197;-56
2022/04/07 04:43:54;;;;;;;1.70;1.53;;;;;;;;;;5006383;28;20268;-56
2022/04/07 04:46:20;;;;;;;3.10;2.13;;;;;;;;;;4993711;28;20191;-56
2022/04/07 04:48:46;;;;;;;2.23;1.77;;;;;;;;;;4993036;28;20206;-56
2022/04/07 04:51:12;;;;;;;3.00;1.70;;;;;;;;;;4998420;28;20362;-56
2022/04/07 04:53:38;;;;;;;3.53;1.80;;;;;;;;;;4997304;28;20198;-56
2022/04/07 04:56:04;;;;;;;1.97;1.50;;;;;;;;;;5006238;28;20742;-56
2022/04/07 04:58:30;;;;;;;3.13;1.67;;;;;;;;;;5002130;28;20197;-55
2022/04/07 05:00:57;;;;;;;2.70;1.50;;;;;;;;;;5003914;28;20558;-57
2022/04/07 05:03:23;;;;;;;2.37;1.60;;;;;;;;;;5003987;28;20194;-56
2022/04/07 05:05:49;;;;;;;3.27;1.80;;;;;;;;;;5000682;28;20252;-56
2022/04/07 05:08:15;;;;;;;1.87;1.60;;;;;;;;;;5001667;28;20557;-55
2022/04/07 05:10:41;;;;;;;1.60;1.50;;;;;;;;;;4983026;28;20631;-56
2022/04/07 05:13:07;;;;;;;3.30;1.70;;;;;;;;;;4992935;28;20287;-56
2022/04/07 05:15:33;;;;;;;2.50;1.57;;;;;;;;;;4990252;28;20274;-55
2022/04/07 05:17:59;;;;;;;1.87;1.60;;;;;;;;;;4984988;28;20192;-56
2022/04/07 05:20:25;;;;;;;3.60;1.80;;;;;;;;;;5003124;28;20185;-56
2022/04/07 05:22:51;;;;;;;2.97;1.73;;;;;;;;;;4999829;28;20184;-55
2022/04/07 05:25:17;;;;;;;2.07;1.63;;;;;;;;;;4999963;28;20224;-56
2022/04/07 05:27:45;;;;;;;1.47;1.20;;;;;;;;;;5001058;28;20236;-56
2022/04/07 05:30:15;;;;;;;2.20;1.40;;;;;;;;;;5001600;28;20243;-54
2022/04/07 05:32:41;;;;;;;1.97;1.40;;;;;;;;;;4999903;28;20217;-56
2022/04/07 05:35:09;;;;;;;2.27;1.40;;;;;;;;;;5000968;28;20188;-56
2022/04/07 05:37:35;;;;;;;3.07;1.33;;;;;;;;;;5003725;28;20558;-56
2022/04/07 05:40:01;;;;;;;1.50;1.40;;;;;;;;;;4995052;28;20229;-56
2022/04/07 05:42:27;;;;;;;2.93;1.70;;;;;;;;;;5004807;28;20685;-56
2022/04/07 05:44:53;;;;;;;3.70;1.40;;;;;;;;;;5009147;28;20639;-56
2022/04/07 05:47:19;;;;;;;1.43;1.30;;;;;;;;;;4997017;28;20198;-56
2022/04/07 05:49:44;;;;;;;3.20;1.40;;;;;;;;;;5004660;28;20197;-56
2022/04/07 05:52:10;;;;;;;2.60;1.60;;;;;;;;;;4997095;28;20221;-57
2022/04/07 05:54:36;;;;;;;2.27;1.23;;;;;;;;;;5009515;28;20213;-56
2022/04/07 05:57:02;;;;;;;2.33;1.30;;;;;;;;;;5000975;28;20194;-56
2022/04/07 05:59:28;;;;;;;2.67;1.40;;;;;;;;;;5003800;28;20213;-56
2022/04/07 06:01:54;;;;;;;1.73;1.40;;;;;;;;;;5003553;28;20231;-57
2022/04/07 06:04:20;;;;;;;2.87;1.33;;;;;;;;;;5001729;28;20253;-56
2022/04/07 06:06:46;;;;;;;2.03;1.33;;;;;;;;;;5006957;28;20216;-56
2022/04/07 06:09:12;;;;;;;3.30;1.50;;;;;;;;;;4993621;28;20192;-56
2022/04/07 06:11:38;;;;;;;3.27;1.23;;;;;;;;;;4999707;28;20245;-56
2022/04/07 06:14:04;;;;;;;1.70;1.40;;;;;;;;;;5005619;28;24790;-57
2022/04/07 06:16:30;;;;;;;3.47;1.43;;;;;;;;;;5004986;28;20299;-56
2022/04/07 06:18:56;;;;;;;2.80;1.50;;;;;;;;;;5007966;28;20190;-56
2022/04/07 06:21:25;;;;;;;1.40;1.30;;;;;;;;;;5001164;28;20185;-56
2022/04/07 06:23:51;;;;;;;1.70;1.40;;;;;;;;;;5012218;28;20197;-56
2022/04/07 06:26:18;;;;;;;2.83;1.43;;;;;;;;;;5011165;28;20728;-56
2022/04/07 06:28:44;;;;;;;1.73;1.40;;;;;;;;;;5010257;28;20239;-56
2022/04/07 06:31:10;;;;;;;2.77;1.60;;;;;;;;;;5009663;28;20213;-56
2022/04/07 06:33:36;;;;;;;1.50;1.40;;;;;;;;;;5016084;28;20197;-55
2022/04/07 06:36:03;;;;;;;3.63;1.60;;;;;;;;;;5008863;28;20196;-56
2022/04/07 06:38:30;;;;;;;2.00;1.50;;;;;;;;;;5005056;28;20196;-56
2022/04/07 06:40:56;;;;;;;1.30;1.20;;;;;;;;;;5006716;28;20189;-57
2022/04/07 06:43:22;;;;;;;2.53;1.50;;;;;;;;;;5009754;28;20193;-57
2022/04/07 06:45:48;;;;;;;4.03;2.13;;;;;;;;;;5017144;28;20569;-56
2022/04/07 06:48:14;;;;;;;2.27;1.60;;;;;;;;;;5013957;28;20714;-56
2022/04/07 06:50:40;;;;;;;2.03;1.30;;;;;;;;;;5012041;28;20659;-57
2022/04/07 06:53:06;;;;;;;1.77;1.50;;;;;;;;;;5013715;28;20186;-56
2022/04/07 06:55:32;;;;;;;2.63;1.40;;;;;;;;;;5014517;28;20186;-56
2022/04/07 06:58:02;;;;;;;1.60;1.50;;;;;;;;;;5014175;28;20196;-56
2022/04/07 07:00:48;;;;;;;1.43;1.33;;;;;;;;;;5012392;28;20181;-57
2022/04/07 07:03:14;;;;;;;2.20;1.67;;;;;;;;;;5010628;28;20196;-57
2022/04/07 07:05:40;;;;;;;6.53;1.70;;;;;;;;;;5013392;28;20201;-55
2022/04/07 07:08:16;;;;;;;1.53;1.43;;;;;;;;;;5017350;28;20218;-56
2022/04/07 07:10:42;;;;;;;2.47;1.53;;;;;;;;;;5006492;28;20429;-57
2022/04/07 07:13:08;;;;;;;1.30;1.20;;;;;;;;;;5010329;28;20587;-56
2022/04/07 07:15:34;;;;;;;4.70;1.60;;;;;;;;;;5011558;28;20192;-57
2022/04/07 07:18:00;;;;;;;3.83;1.93;;;;;;;;;;5012217;28;20306;-56
2022/04/07 07:20:26;;;;;;;3.73;1.23;;;;;;;;;;5009513;28;20186;-57
2022/04/07 07:22:53;;;;;;;1.80;1.43;;;;;;;;;;5011974;28;20189;-56
2022/04/07 07:25:19;;;;;;;1.30;1.00;;;;;;;;;;5010899;28;20186;-56
2022/04/07 07:27:45;;;;;;;1.43;1.33;;;;;;;;;;5009758;28;20237;-56
2022/04/07 07:30:12;;;;;;;1.87;1.20;;;;;;;;;;5010042;28;20193;-57
2022/04/07 07:32:38;;;;;;;1.60;1.30;;;;;;;;;;5008770;28;20693;-56
2022/04/07 07:35:04;;;;;;;1.53;1.20;;;;;;;;;;5010711;28;20205;-56
2022/04/07 07:37:30;;;;;;;2.50;1.20;;;;;;;;;;5011711;28;20471;-56
2022/04/07 07:39:56;;;;;;;1.50;1.10;;;;;;;;;;5014233;28;20245;-56
2022/04/07 07:42:23;;;;;;;1.10;1.00;;;;;;;;;;5004638;28;20217;-57
2022/04/07 07:44:49;;;;;;;2.67;1.30;;;;;;;;;;5016487;28;20189;-57
2022/04/07 07:47:14;;;;;;;2.83;1.37;;;;;;;;;;5001387;28;20205;-57
2022/04/07 07:49:40;;;;;;;1.93;1.20;;;;;;;;;;5006230;28;20201;-57
2022/04/07 07:52:06;;;;;;;1.50;1.20;;;;;;;;;;5011708;28;20217;-57
2022/04/07 07:54:32;;;;;;;2.47;1.10;;;;;;;;;;5005225;28;20193;-56
2022/04/07 07:56:58;;;;;;;2.63;1.10;;;;;;;;;;5011326;28;20204;-57
2022/04/07 07:59:24;;;;;;;1.97;1.20;;;;;;;;;;5006893;28;20198;-57
2022/04/07 08:01:50;;;;;;;1.20;1.10;;;;;;;;;;5004441;28;20291;-56
2022/04/07 08:04:16;;;;;;;1.03;1.00;;;;;;;;;;4993003;28;20202;-56
2022/04/07 08:06:42;;;;;;;1.37;1.10;;;;;;;;;;5000963;28;20208;-56
2022/04/07 08:09:10;;;;;;;1.10;1.00;;;;;;;;;;5014752;28;20205;-56
2022/04/07 08:11:36;;;;;;;1.03;0.90;;;;;;;;;;5009154;28;20219;-57
2022/04/07 08:14:02;;;;;;;1.10;1.00;;;;;;;;;;5005963;28;20194;-56
2022/04/07 08:16:30;;;;;;;2.80;1.00;;;;;;;;;;5009327;28;20190;-57
2022/04/07 08:18:56;;;;;;;1.40;1.30;;;;;;;;;;5006797;28;20225;-57
2022/04/07 08:21:22;;;;;;;2.03;1.10;;;;;;;;;;5009293;28;20260;-57
2022/04/07 08:23:48;;;;;;;1.53;1.03;;;;;;;;;;5008888;28;20284;-57
2022/04/07 08:26:14;;;;;;;1.67;1.20;;;;;;;;;;5008923;28;20205;-57
2022/04/07 08:28:40;;;;;;;0.80;0.80;;;;;;;;;;5007242;28;20323;-57
2022/04/07 08:31:06;;;;;;;1.43;1.00;;;;;;;;;;5003855;28;20902;-56
2022/04/07 08:33:32;;;;;;;1.30;0.90;;;;;;;;;;5004512;28;20196;-56
2022/04/07 08:35:58;;;;;;;0.90;0.90;;;;;;;;;;5008551;28;20676;-56
2022/04/07 08:38:23;;;;;;;0.93;0.80;;;;;;;;;;5004661;28;20702;-56
2022/04/07 08:40:53;;;;;;;0.93;0.90;;;;;;;;;;5010481;28;20221;-56
2022/04/07 08:43:19;;;;;;;1.20;1.10;;;;;;;;;;5008336;28;20270;-56
2022/04/07 08:45:45;;;;;;;1.67;0.80;;;;;;;;;;5010971;28;20260;-57
2022/04/07 08:48:11;;;;;;;0.80;0.80;;;;;;;;;;5015959;28;20561;-57
2022/04/07 08:50:41;;;;;;;0.80;0.80;;;;;;;;;;5009239;28;20196;-57
2022/04/07 08:53:07;;;;;;;3.50;0.90;;;;;;;;;;5013340;28;20197;-56
2022/04/07 08:55:33;;;;;;;2.20;0.83;;;;;;;;;;5011211;28;20631;-57
2022/04/07 08:58:00;;;;;;;1.77;0.90;;;;;;;;;;5012798;28;20681;-57
2022/04/07 09:00:25;;;;;;;1.90;0.83;;;;;;;;;;5014764;28;20654;-57
2022/04/07 09:02:55;;;;;;;0.70;0.70;;;;;;;;;;5009446;28;20336;-56
2022/04/07 09:05:23;;;;;;;0.90;0.90;;;;;;;;;;5012802;28;20196;-57
2022/04/07 09:07:50;;;;;;;0.80;0.80;;;;;;;;;;5011820;28;20221;-57
2022/04/07 09:10:16;;;;;;;0.90;0.90;;;;;;;;;;5012981;28;20227;-57
2022/04/07 09:12:43;;;;;;;0.80;0.80;;;;;;;;;;5011552;28;20288;-57
2022/04/07 09:15:09;;;;;;;0.80;0.80;;;;;;;;;;5011131;28;20287;-57
2022/04/07 09:17:48;;;;;;;2.20;0.90;;;;;;;;;;5014417;28;21432;-56
2022/04/07 09:20:14;;;;;;;2.13;0.90;;;;;;;;;;5008318;28;20247;-56
2022/04/07 09:22:40;;;;;;;1.03;0.90;;;;;;;;;;5010739;28;20201;-56
2022/04/07 09:25:06;;;;;;;1.57;0.90;;;;;;;;;;5010724;28;20650;-57
2022/04/07 09:27:32;;;;;;;0.80;0.80;;;;;;;;;;5006820;28;20316;-57
2022/04/07 09:29:59;;;;;;;0.80;0.80;;;;;;;;;;5006083;28;20189;-56
2022/04/07 09:32:25;;;;;;;0.83;0.83;;;;;;;;;;5012408;28;20205;-57
2022/04/07 09:34:52;;;;;;;0.97;0.90;;;;;;;;;;5009083;28;20208;-57
2022/04/07 09:37:19;;;;;;;1.37;0.90;;;;;;;;;;5006940;28;20205;-57
2022/04/07 09:39:46;;;;;;;1.33;1.00;;;;;;;;;;5010988;28;20280;-57
2022/04/07 09:42:19;;;;;;;1.00;1.00;;;;;;;;;;5019709;28;20239;-57
2022/04/07 09:44:46;;;;;;;1.27;0.90;;;;;;;;;;5013524;28;20227;-56
2022/04/07 09:47:12;;;;;;;1.00;0.90;;;;;;;;;;5010129;28;20723;-55
2022/04/07 09:49:38;;;;;;;2.10;1.10;;;;;;;;;;5011962;28;20201;-57
2022/04/07 09:52:05;;;;;;;1.10;1.00;;;;;;;;;;5011827;28;20217;-57
2022/04/07 09:54:31;;;;;;;0.97;0.97;;;;;;;;;;5008418;28;20196;-57
2022/04/07 09:56:58;;;;;;;1.30;1.00;;;;;;;;;;5005832;28;20710;-57
2022/04/07 09:59:24;;;;;;;1.20;1.10;;;;;;;;;;5013904;28;20208;-57
2022/04/07 10:01:51;;;;;;;1.20;1.10;;;;;;;;;;5011764;28;20189;-57
2022/04/07 10:04:17;;;;;;;1.50;1.00;;;;;;;;;;5011694;28;20229;-57
2022/04/07 10:06:42;;;;;;;1.00;1.00;;;;;;;;;;5014491;28;20244;-57
2022/04/07 10:09:09;;;;;;;1.57;1.00;;;;;;;;;;5007756;28;20568;-57
2022/04/07 10:11:35;;;;;;;1.50;1.03;;;;;;;;;;5005431;28;20212;-57
2022/04/07 10:14:01;;;;;;;1.70;1.10;;;;;;;;;;5013524;28;20253;-57
2022/04/07 10:16:27;;;;;;;1.17;1.10;;;;;;;;;;5008104;28;20193;-57
2022/04/07 10:18:57;;;;;;;1.33;1.10;;;;;;;;;;5009826;28;20599;-57
2022/04/07 10:21:31;;;;;;;1.10;1.10;;;;;;;;;;5014887;28;20596;-57
2022/04/07 10:24:06;;;;;;;1.47;1.20;;;;;;;;;;5010168;28;20196;-57
2022/04/07 10:26:32;;;;;;;2.40;1.53;;;;;;;;;;5007784;28;20272;-57
2022/04/07 10:28:58;;;;;;;4.27;1.50;;;;;;;;;;5008360;28;20574;-57
2022/04/07 10:31:25;;;;;;;1.87;1.20;;;;;;;;;;5002720;28;20297;-57
2022/04/07 10:33:51;;;;;;;1.50;1.30;;;;;;;;;;5010578;28;20190;-57
2022/04/07 10:36:23;;;;;;;2.03;1.40;;;;;;;;;;5011451;28;20461;-57
2022/04/07 10:38:52;;;;;;;3.17;1.60;;;;;;;;;;5004316;28;20741;-57
2022/04/07 10:41:37;;;;;;;1.93;1.33;;;;;;;;;;5010048;28;20197;-57
2022/04/07 10:44:16;;;;;;;3.03;1.50;;;;;;;;;;5012997;28;20243;-57
2022/04/07 10:46:42;;;;;;;3.63;1.40;;;;;;;;;;5015723;28;20208;-57
2022/04/07 10:49:09;;;;;;;3.53;1.23;;;;;;;;;;5005963;28;20201;-57
2022/04/07 10:51:48;;;;;;;1.40;1.00;;;;;;;;;;4996802;28;20217;-57
2022/04/07 10:54:14;;;;;;;1.37;1.13;;;;;;;;;;5005507;28;20192;-57
2022/04/07 10:56:42;;;;;;;1.20;1.10;;;;;;;;;;5008438;28;20192;-57
2022/04/07 10:59:11;;;;;;;3.10;1.20;;;;;;;;;;5018036;28;20205;-57
2022/04/07 11:01:37;;;;;;;1.97;1.10;;;;;;;;;;5011741;28;20945;-56
2022/04/07 11:04:18;;;;;;;1.93;1.10;;;;;;;;;;5002504;28;20255;-57
2022/04/07 11:07:03;;;;;;;1.30;1.00;;;;;;;;;;5004319;28;20251;-56
2022/04/07 11:09:47;;;;;;;1.67;1.10;;;;;;;;;;5006559;28;20201;-56
2022/04/07 11:12:19;;;;;;;1.85;0.93;;;;;;;;;;5000442;28;20573;-57
2022/04/07 11:14:46;;;;;;;0.90;0.90;;;;;;;;;;5006114;28;20647;-57
2022/04/07 11:17:15;;;;;;;1.00;1.00;;;;;;;;;;5001320;28;20185;-57
2022/04/07 11:19:45;;;;;;;1.40;1.25;;;;;;;;;;5006387;28;20184;-57
2022/04/07 11:22:12;;;;;;;3.72;1.35;;;;;;;;;;5006291;28;20953;-57
2022/04/07 11:24:44;;;;;;;1.10;1.10;;;;;;;;;;4998650;28;20789;-56
2022/04/07 11:27:44;;;;;;;1.95;1.10;;;;;;;;;;4997604;28;20252;-57
2022/04/07 11:30:10;;;;;;;1.00;0.90;;;;;;;;;;5009392;28;20303;-57
2022/04/07 11:32:38;;;;;;;1.08;0.90;;;;;;;;;;5000286;28;20299;-57
2022/04/07 11:35:14;;;;;;;2.30;1.10;;;;;;;;;;5003766;28;20247;-57
2022/04/07 11:37:41;;;;;;;1.15;1.05;;;;;;;;;;5005464;28;20224;-57
2022/04/07 11:40:07;;;;;;;1.92;1.27;;;;;;;;;;5005646;28;20922;-56
2022/04/07 11:42:33;;;;;;;1.35;1.20;;;;;;;;;;5003558;28;20212;-57
2022/04/07 11:45:00;;;;;;;1.13;0.98;;;;;;;;;;4999232;28;20197;-57
2022/04/07 11:47:37;;;;;;;1.10;1.00;;;;;;;;;;5001046;28;20252;-57
2022/04/07 11:50:06;;;;;;;1.00;0.90;;;;;;;;;;5003649;28;20180;-57
2022/04/07 11:52:32;;;;;;;2.50;1.00;;;;;;;;;;5005536;28;20354;-57
2022/04/07 11:54:59;;;;;;;1.35;1.10;;;;;;;;;;5007356;28;20263;-57
2022/04/07 11:57:25;;;;;;;1.70;1.20;;;;;;;;;;5000439;28;20189;-57
2022/04/07 11:59:54;;;;;;;1.95;1.00;;;;;;;;;;5005329;28;20875;-57
2022/04/07 12:02:21;;;;;;;3.97;1.25;;;;;;;;;;5009238;28;20710;-56
2022/04/07 12:04:47;;;;;;;3.25;1.13;;;;;;;;;;5010205;28;20204;-56
2022/04/07 12:07:13;;;;;;;1.60;1.10;;;;;;;;;;5002598;28;20716;-57
2022/04/07 12:09:39;;;;;;;1.73;1.20;;;;;;;;;;5008433;28;20186;-56
2022/04/07 12:12:06;;;;;;;2.65;1.45;;;;;;;;;;5007089;28;20221;-57
2022/04/07 12:14:32;;;;;;;1.30;1.15;;;;;;;;;;5005772;28;20185;-57
2022/04/07 12:16:58;;;;;;;1.35;1.20;;;;;;;;;;5006980;28;20688;-57
2022/04/07 12:19:24;;;;;;;2.15;1.63;;;;;;;;;;5007536;28;20185;-57
2022/04/07 12:21:57;;;;;;;2.78;1.27;;;;;;;;;;5010854;28;20198;-57
2022/04/07 12:24:23;;;;;;;1.40;1.15;;;;;;;;;;5002272;28;20186;-57
2022/04/07 12:26:50;;;;;;;3.05;1.42;;;;;;;;;;5004611;28;20546;-57
2022/04/07 12:29:22;;;;;;;2.20;1.33;;;;;;;;;;5007935;28;20188;-57
2022/04/07 12:32:01;;;;;;;4.80;1.73;;;;;;;;;;5001163;28;20213;-57
2022/04/07 12:34:27;;;;;;;4.00;1.67;;;;;;;;;;4999464;28;20699;-57
2022/04/07 12:36:53;;;;;;;2.85;1.40;;;;;;;;;;5000618;28;20199;-58
2022/04/07 12:39:20;;;;;;;7.03;1.90;;;;;;;;;;5002624;28;20204;-57
2022/04/07 12:41:49;;;;;;;4.22;1.30;;;;;;;;;;4998335;28;20287;-58
2022/04/07 12:44:27;;;;;;;4.38;1.55;;;;;;;;;;4999510;28;20216;-57
2022/04/07 12:46:54;;;;;;;4.10;1.70;;;;;;;;;;5003691;28;20245;-58
2022/04/07 12:49:26;;;;;;;5.35;1.63;;;;;;;;;;4998421;28;20224;-58
2022/04/07 12:52:13;;;;;;;3.50;1.77;;;;;;;;;;4993022;28;20304;-57
2022/04/07 12:54:55;;;;;;;2.95;1.73;;;;;;;;;;5000096;28;20228;-55
2022/04/07 12:57:21;;;;;;;2.13;1.58;;;;;;;;;;5001952;28;20174;-56
2022/04/07 12:59:56;;;;;;;6.07;1.88;;;;;;;;;;4996780;28;20196;-56
2022/04/07 13:02:22;;;;;;;3.03;1.40;;;;;;;;;;4999258;28;20184;-56
2022/04/07 13:04:52;;;;;;;3.20;1.50;;;;;;;;;;4995671;28;20736;-56
2022/04/07 13:07:18;;;;;;;4.72;1.75;;;;;;;;;;5002078;28;20682;-56
2022/04/07 13:09:45;;;;;;;6.00;1.77;;;;;;;;;;4998977;28;20655;-56
2022/04/07 13:12:13;;;;;;;4.10;1.90;;;;;;;;;;5000097;28;20233;-56
2022/04/07 13:14:39;;;;;;;3.28;1.70;;;;;;;;;;5002586;28;20189;-56
2022/04/07 13:17:05;;;;;;;3.45;1.85;;;;;;;;;;4996382;28;20207;-56
2022/04/07 13:19:32;;;;;;;3.42;1.90;;;;;;;;;;4993734;28;20185;-55
2022/04/07 13:21:58;;;;;;;6.07;2.30;;;;;;;;;;5001295;28;20266;-56
2022/04/07 13:24:24;;;;;;;4.30;1.92;;;;;;;;;;4997829;28;20193;-56
2022/04/07 13:26:50;;;;;;;9.15;2.20;;;;;;;;;;4991774;28;20271;-56
2022/04/07 13:29:16;;;;;;;5.82;1.98;;;;;;;;;;4998421;28;20586;-56
2022/04/07 13:31:42;;;;;;;5.55;1.95;;;;;;;;;;5000988;28;20561;-56
2022/04/07 13:34:08;;;;;;;5.38;2.03;;;;;;;;;;4991566;28;20189;-55
2022/04/07 13:36:34;;;;;;;4.10;2.10;;;;;;;;;;5002731;28;20185;-56
2022/04/07 13:39:00;;;;;;;6.82;2.10;;;;;;;;;;4995068;28;20196;-56
2022/04/07 13:41:26;;;;;;;7.38;2.05;;;;;;;;;;5001286;28;20851;-56
2022/04/07 13:43:52;;;;;;;5.80;2.30;;;;;;;;;;4996906;28;22652;-56
2022/04/07 13:46:18;;;;;;;6.78;2.28;;;;;;;;;;4999781;28;20204;-56
2022/04/07 13:48:44;;;;;;;6.03;2.13;;;;;;;;;;5003419;28;20193;-56
2022/04/07 13:51:10;;;;;;;4.43;2.03;;;;;;;;;;4993297;28;20212;-56
2022/04/07 13:53:36;;;;;;;5.40;2.38;;;;;;;;;;4997485;28;20221;-56
2022/04/07 13:56:02;;;;;;;4.97;2.35;;;;;;;;;;5001987;28;20581;-56
2022/04/07 13:58:28;;;;;;;7.47;2.75;;;;;;;;;;4997843;28;20223;-56
2022/04/07 14:00:54;;;;;;;4.90;2.20;;;;;;;;;;4994422;28;20193;-56
2022/04/07 14:03:20;;;;;;;4.20;2.37;;;;;;;;;;5003528;28;20714;-56
2022/04/07 14:05:47;;;;;;;6.60;2.07;;;;;;;;;;5001041;28;20189;-56
2022/04/07 14:08:14;;;;;;;6.10;2.20;;;;;;;;;;4995021;28;20193;-56
2022/04/07 14:10:41;;;;;;;7.93;2.10;;;;;;;;;;5000882;28;20217;-56
2022/04/07 14:13:07;;;;;;;8.50;2.17;;;;;;;;;;5006882;28;20225;-56
2022/04/07 14:15:33;;;;;;;4.87;2.10;;;;;;;;;;5002207;28;20608;-56
2022/04/07 14:17:59;;;;;;;4.03;1.80;;;;;;;;;;4994424;28;20200;-57
2022/04/07 14:20:26;;;;;;;6.03;1.97;;;;;;;;;;5000366;28;20239;-56
2022/04/07 14:22:52;;;;;;;7.13;2.00;;;;;;;;;;4992363;28;20197;-56
2022/04/07 14:25:18;;;;;;;4.17;1.80;;;;;;;;;;4998673;28;20196;-55
2022/04/07 14:27:44;;;;;;;5.53;2.13;;;;;;;;;;5000418;28;20247;-55
2022/04/07 14:30:10;;;;;;;5.43;2.30;;;;;;;;;;5002934;28;20189;-53
2022/04/07 14:32:36;;;;;;;8.40;2.27;;;;;;;;;;4997816;28;20213;-54
2022/04/07 14:35:02;;;;;;;4.27;1.93;;;;;;;;;;4997935;28;20662;-55
2022/04/07 14:37:28;;;;;;;5.37;2.20;;;;;;;;;;4993216;28;20228;-55
2022/04/07 14:39:55;;;;;;;6.23;2.20;;;;;;;;;;4986120;28;20659;-54
2022/04/07 14:42:21;;;;;;;9.33;2.43;;;;;;;;;;4997784;28;20203;-54